Cincinnati, Ohio
Traffic Map
Current Weather Conditions
Cincinnati, Ohio
Overcast Light Rain
Overcast
65°
Feels Like: 65°
Wind Chill: 65° Ceiling: 6000
Heat Index: 65° Visibility: 9mi
Dew Point: 61° Wind: 0mph
Humidity: 87% Direction: ° ()
Pressure: 30.16in Gusts: 0mph
Raw Report DataKLUK 251453Z 00000KT 9SM -RA BKN060 BKN080 OVC095 18/16 A3016 RMK AO2 RAB23 SLP211 P0001 60001 T01830161 53010
Traffic Incident Summary
Active as of:
Severity:
Category:
InformationThere was an issue retrieving the traffic information for this location. Please try a different location or try again shortly.
Advertisements
Track Severe Weather on mobile